Time;durP1;ratioP1;P1;durP2;ratioP2;P2;SDS_P1;SDS_P2;PMS_P1;PMS_P2;Temp;Humidity;BMP_temperature;BMP_pressure;BME280_temperature;BME280_humidity;BME280_pressure;Samples;Min_cycle;Max_cycle;Signal;HPM_P1;HPM_P2
2022/10/16 20:22:31;;;;;;;10.82;5.35;;;12.40;99.90;;;;;;719692;23;20331;-93
2022/10/16 20:24:56;;;;;;;12.38;5.30;;;12.40;99.90;;;;;;4946787;29;20056;-96
2022/10/16 20:27:23;;;;;;;12.38;5.20;;;12.40;99.90;;;;;;4935521;29;20093;-93
2022/10/16 20:29:49;;;;;;;12.50;5.43;;;12.40;99.90;;;;;;4938291;29;20144;-94
2022/10/16 20:32:15;;;;;;;12.25;5.55;;;12.40;99.90;;;;;;4937113;29;20086;-94
2022/10/16 20:34:45;;;;;;;11.15;5.50;;;12.40;99.90;;;;;;4937087;29;20047;-93
2022/10/16 20:37:11;;;;;;;11.70;5.75;;;12.40;99.90;;;;;;4921523;29;20397;-93
2022/10/16 20:39:36;;;;;;;12.85;5.40;;;12.50;99.90;;;;;;4931409;29;20042;-94
2022/10/16 20:42:02;;;;;;;11.85;5.72;;;12.50;99.90;;;;;;4929109;29;20035;-93
2022/10/16 20:44:27;;;;;;;10.27;5.28;;;12.60;99.90;;;;;;4938351;29;20067;-94
2022/10/16 20:46:54;;;;;;;11.95;5.78;;;12.60;99.90;;;;;;4927057;29;20038;-93
2022/10/16 20:49:20;;;;;;;12.48;5.47;;;12.60;99.90;;;;;;4938645;29;20043;-95
2022/10/16 20:51:48;;;;;;;12.98;5.40;;;12.60;99.90;;;;;;4936785;29;20122;-93
2022/10/16 20:54:14;;;;;;;12.95;5.80;;;12.70;99.90;;;;;;4936863;29;20099;-93
2022/10/16 20:56:41;;;;;;;12.13;5.25;;;12.60;99.90;;;;;;4920486;29;20082;-96
2022/10/16 20:59:07;;;;;;;11.65;5.85;;;12.70;99.90;;;;;;4921911;29;20046;-95
2022/10/16 21:01:35;;;;;;;11.50;5.40;;;12.70;99.90;;;;;;4921948;29;20123;-95
2022/10/16 21:04:03;;;;;;;11.15;5.72;;;12.70;99.90;;;;;;4940383;29;20036;-94
2022/10/16 21:06:31;;;;;;;11.93;5.57;;;12.80;99.90;;;;;;4937191;29;20047;-92
2022/10/16 21:09:02;;;;;;;11.85;5.75;;;12.80;99.90;;;;;;4937028;29;20047;-93
2022/10/16 21:11:30;;;;;;;12.43;5.60;;;12.80;99.90;;;;;;4934689;29;20401;-93
2022/10/16 21:13:59;;;;;;;13.00;5.47;;;12.80;99.90;;;;;;4936857;29;20043;-93
2022/10/16 21:16:25;;;;;;;10.93;5.30;;;12.80;99.90;;;;;;4936448;29;20051;-94
2022/10/16 21:18:52;;;;;;;12.10;4.85;;;12.80;99.90;;;;;;4921402;29;20032;-94
2022/10/16 21:21:19;;;;;;;14.32;5.43;;;12.80;99.90;;;;;;4936725;29;20039;-94
2022/10/16 21:23:45;;;;;;;12.15;5.10;;;12.80;99.90;;;;;;4947864;28;20050;-95
2022/10/16 21:26:10;;;;;;;12.40;5.10;;;12.90;99.90;;;;;;4954328;28;20043;-96
2022/10/16 21:28:36;;;;;;;12.93;5.10;;;13.00;99.90;;;;;;4958310;29;20087;-95
2022/10/16 21:31:17;;;;;;;13.82;5.38;;;12.90;99.90;;;;;;4929401;29;20403;-96
2022/10/16 21:33:44;;;;;;;12.40;4.97;;;12.90;99.90;;;;;;4955949;29;20039;-95
2022/10/16 21:36:24;;;;;;;10.90;5.07;;;12.90;99.90;;;;;;4960796;29;20047;-96
2022/10/16 21:38:51;;;;;;;15.15;5.72;;;12.90;99.90;;;;;;4973262;28;20043;-96
2022/10/16 21:41:22;;;;;;;16.92;5.57;;;12.90;99.90;;;;;;5112566;23;20039;-96
2022/10/16 21:43:48;;;;;;;13.98;6.00;;;12.90;99.90;;;;;;4952161;29;20099;-95
2022/10/16 21:46:16;;;;;;;15.15;5.57;;;13.00;99.90;;;;;;4936764;29;20099;-96
2022/10/16 21:48:42;;;;;;;14.43;5.53;;;12.90;99.90;;;;;;4952487;29;20404;-95
2022/10/16 21:51:09;;;;;;;13.75;5.72;;;13.00;99.90;;;;;;4930479;29;20091;-96
2022/10/16 21:53:34;;;;;;;15.07;5.55;;;13.00;99.90;;;;;;4944989;29;20062;-96
2022/10/16 21:56:00;;;;;;;12.25;5.22;;;13.00;99.90;;;;;;4950330;29;20039;-95
2022/10/16 21:58:26;;;;;;;14.35;5.40;;;13.00;99.90;;;;;;4930525;29;20047;-96
2022/10/16 22:00:52;;;;;;;12.07;5.50;;;13.00;99.90;;;;;;4944966;29;20050;-96
2022/10/16 22:03:17;;;;;;;14.40;5.70;;;13.00;99.90;;;;;;4946327;29;20047;-95
2022/10/16 22:05:43;;;;;;;13.55;5.75;;;13.00;99.90;;;;;;4951456;29;20075;-96
2022/10/16 22:08:09;;;;;;;17.42;5.78;;;13.00;99.90;;;;;;4949345;29;20031;-96
2022/10/16 22:13:10;;;;;;;12.65;5.53;;;13.00;99.90;;;;;;5036899;23;20067;-96
2022/10/16 22:15:47;;;;;;;15.30;6.13;;;13.10;99.90;;;;;;4937160;29;20059;-96
2022/10/16 22:18:13;;;;;;;12.55;5.65;;;13.10;99.90;;;;;;4946689;29;20075;-95
2022/10/16 22:20:44;;;;;;;13.50;5.95;;;13.00;99.90;;;;;;4945056;28;20044;-96
2022/10/16 22:23:10;;;;;;;11.30;5.72;;;13.10;99.90;;;;;;4944480;29;20167;-95
2022/10/16 22:25:36;;;;;;;14.27;5.45;;;13.00;99.90;;;;;;4927789;29;20067;-96
2022/10/16 22:28:02;;;;;;;12.50;5.40;;;13.10;99.90;;;;;;4923960;29;20477;-96
2022/10/16 22:30:27;;;;;;;14.63;5.78;;;13.10;99.90;;;;;;4923672;29;20051;-95
2022/10/16 22:32:53;;;;;;;12.25;5.95;;;13.10;99.90;;;;;;4954535;29;20046;-96
2022/10/16 22:35:18;;;;;;;12.55;5.80;;;13.10;99.90;;;;;;4922128;29;20548;-96
2022/10/16 22:37:44;;;;;;;13.85;6.30;;;13.10;99.90;;;;;;4941787;29;20099;-96
2022/10/16 22:40:10;;;;;;;11.85;6.10;;;13.20;99.90;;;;;;4926144;29;20043;-96
2022/10/16 22:42:36;;;;;;;13.68;5.65;;;13.10;99.90;;;;;;4944294;29;20043;-96
2022/10/16 22:45:02;;;;;;;13.10;5.57;;;13.20;99.90;;;;;;4944529;29;20048;-96
2022/10/16 22:47:28;;;;;;;12.85;6.07;;;13.10;99.90;;;;;;4947250;29;20075;-96
2022/10/16 22:49:54;;;;;;;12.02;6.13;;;13.10;99.90;;;;;;4940734;29;20048;-96
2022/10/16 22:52:19;;;;;;;12.15;5.82;;;13.10;99.90;;;;;;4936316;29;20137;-96
2022/10/16 22:54:48;;;;;;;12.70;5.47;;;13.20;99.90;;;;;;4938928;28;20054;-94
2022/10/16 22:57:14;;;;;;;17.20;5.97;;;13.10;99.90;;;;;;4951102;29;20405;-96
2022/10/16 22:59:39;;;;;;;12.48;5.63;;;13.20;99.90;;;;;;4945407;29;20043;-96
2022/10/16 23:02:05;;;;;;;14.25;5.57;;;13.10;99.90;;;;;;4959382;29;20035;-96
2022/10/16 23:04:31;;;;;;;13.18;5.82;;;13.20;99.90;;;;;;4950339;29;20091;-96
2022/10/16 23:06:59;;;;;;;11.35;5.50;;;13.20;99.90;;;;;;4925025;29;20047;-96
2022/10/16 23:09:25;;;;;;;14.35;5.57;;;13.10;99.90;;;;;;4944584;28;20091;-96
2022/10/16 23:11:53;;;;;;;10.27;5.03;;;13.10;99.90;;;;;;4949787;29;20111;-96
2022/10/16 23:14:21;;;;;;;10.32;5.07;;;13.10;99.90;;;;;;4944381;29;20059;-96
